sensor_id;sensor_type;location;lat;lon;timestamp;temperature;humidity
3288;DHT22;3260;52.438;13.502;2023-04-25T04:02:35;9.20;1.00
3288;DHT22;3260;52.438;13.502;2023-04-25T04:05:07;9.30;1.00
3288;DHT22;3260;52.438;13.502;2023-04-25T04:07:36;9.30;1.00
3288;DHT22;3260;52.438;13.502;2023-04-25T04:10:07;9.30;1.00
3288;DHT22;3260;52.438;13.502;2023-04-25T04:12:36;9.30;1.00
3288;DHT22;3260;52.438;13.502;2023-04-25T04:15:05;9.40;1.00
3288;DHT22;3260;52.438;13.502;2023-04-25T04:17:37;9.40;1.00
3288;DHT22;3260;52.438;13.502;2023-04-25T04:20:06;9.40;1.00
3288;DHT22;3260;52.438;13.502;2023-04-25T04:22:35;9.30;1.00
3288;DHT22;3260;52.438;13.502;2023-04-25T04:25:04;9.30;1.00
3288;DHT22;3260;52.438;13.502;2023-04-25T04:27:33;9.20;1.00
3288;DHT22;3260;52.438;13.502;2023-04-25T04:30:02;9.30;1.00
3288;DHT22;3260;52.438;13.502;2023-04-25T04:32:31;9.20;1.00
3288;DHT22;3260;52.438;13.502;2023-04-25T04:35:03;9.30;1.00
3288;DHT22;3260;52.438;13.502;2023-04-25T04:37:33;9.30;1.00
3288;DHT22;3260;52.438;13.502;2023-04-25T04:40:02;9.30;1.00
3288;DHT22;3260;52.438;13.502;2023-04-25T04:42:32;9.40;1.00
3288;DHT22;3260;52.438;13.502;2023-04-25T04:45:00;9.40;1.00
3288;DHT22;3260;52.438;13.502;2023-04-25T04:47:29;9.40;1.00
3288;DHT22;3260;52.438;13.502;2023-04-25T04:49:59;9.40;1.00
3288;DHT22;3260;52.438;13.502;2023-04-25T04:52:28;9.40;1.00
3288;DHT22;3260;52.438;13.502;2023-04-25T04:54:57;9.40;1.00
3288;DHT22;3260;52.438;13.502;2023-04-25T04:57:25;9.40;1.00
3288;DHT22;3260;52.438;13.502;2023-04-25T04:59:53;9.40;1.00
3288;DHT22;3260;52.438;13.502;2023-04-25T05:02:22;9.50;1.00
3288;DHT22;3260;52.438;13.502;2023-04-25T05:04:50;9.60;1.00
3288;DHT22;3260;52.438;13.502;2023-04-25T05:07:19;9.70;1.00
3288;DHT22;3260;52.438;13.502;2023-04-25T05:09:49;9.80;1.00
3288;DHT22;3260;52.438;13.502;2023-04-25T05:12:17;9.80;1.00
3288;DHT22;3260;52.438;13.502;2023-04-25T05:14:45;9.90;1.00
3288;DHT22;3260;52.438;13.502;2023-04-25T05:17:13;9.80;1.00
3288;DHT22;3260;52.438;13.502;2023-04-25T05:19:42;9.90;1.00
3288;DHT22;3260;52.438;13.502;2023-04-25T05:22:10;9.80;1.00
3288;DHT22;3260;52.438;13.502;2023-04-25T05:24:38;9.80;1.00
3288;DHT22;3260;52.438;13.502;2023-04-25T05:27:08;9.80;1.00
3288;DHT22;3260;52.438;13.502;2023-04-25T05:29:36;9.80;1.00
3288;DHT22;3260;52.438;13.502;2023-04-25T05:32:05;9.80;1.00
3288;DHT22;3260;52.438;13.502;2023-04-25T05:34:34;9.80;1.00
3288;DHT22;3260;52.438;13.502;2023-04-25T05:37:03;9.80;1.00
3288;DHT22;3260;52.438;13.502;2023-04-25T05:39:31;9.80;1.00
3288;DHT22;3260;52.438;13.502;2023-04-25T05:42:00;9.80;1.00
3288;DHT22;3260;52.438;13.502;2023-04-25T05:44:31;9.80;1.00
3288;DHT22;3260;52.438;13.502;2023-04-25T05:47:00;9.70;1.00
3288;DHT22;3260;52.438;13.502;2023-04-25T05:49:28;9.70;1.00
3288;DHT22;3260;52.438;13.502;2023-04-25T05:51:56;9.80;1.00
3288;DHT22;3260;52.438;13.502;2023-04-25T05:54:24;9.80;1.00
3288;DHT22;3260;52.438;13.502;2023-04-25T05:56:53;10.00;1.00
3288;DHT22;3260;52.438;13.502;2023-04-25T05:59:21;10.10;1.00
3288;DHT22;3260;52.438;13.502;2023-04-25T06:01:50;10.20;1.00
3288;DHT22;3260;52.438;13.502;2023-04-25T06:04:19;10.20;1.00
3288;DHT22;3260;52.438;13.502;2023-04-25T06:06:47;10.10;1.00
3288;DHT22;3260;52.438;13.502;2023-04-25T06:09:16;10.00;1.00
3288;DHT22;3260;52.438;13.502;2023-04-25T06:11:44;9.90;1.00
3288;DHT22;3260;52.438;13.502;2023-04-25T06:14:13;10.00;1.00
3288;DHT22;3260;52.438;13.502;2023-04-25T06:16:41;10.00;1.00
3288;DHT22;3260;52.438;13.502;2023-04-25T06:19:10;10.00;1.00
3288;DHT22;3260;52.438;13.502;2023-04-25T06:21:39;10.00;1.00
3288;DHT22;3260;52.438;13.502;2023-04-25T06:24:07;10.00;1.00
3288;DHT22;3260;52.438;13.502;2023-04-25T06:26:36;10.00;1.00
3288;DHT22;3260;52.438;13.502;2023-04-25T06:29:04;9.90;1.00
3288;DHT22;3260;52.438;13.502;2023-04-25T06:31:32;10.00;1.00
3288;DHT22;3260;52.438;13.502;2023-04-25T06:34:00;10.00;1.00
3288;DHT22;3260;52.438;13.502;2023-04-25T06:36:30;10.10;1.00
3288;DHT22;3260;52.438;13.502;2023-04-25T06:38:58;10.10;1.00
3288;DHT22;3260;52.438;13.502;2023-04-25T06:41:27;10.20;1.00
3288;DHT22;3260;52.438;13.502;2023-04-25T06:43:55;10.30;1.00
3288;DHT22;3260;52.438;13.502;2023-04-25T06:46:23;10.40;1.00
3288;DHT22;3260;52.438;13.502;2023-04-25T06:48:51;10.60;1.00
3288;DHT22;3260;52.438;13.502;2023-04-25T06:51:19;10.80;1.00
3288;DHT22;3260;52.438;13.502;2023-04-25T06:53:51;10.80;1.00
3288;DHT22;3260;52.438;13.502;2023-04-25T06:56:20;10.80;1.00
3288;DHT22;3260;52.438;13.502;2023-04-25T06:58:49;10.70;1.00
3288;DHT22;3260;52.438;13.502;2023-04-25T07:01:18;10.70;1.00
3288;DHT22;3260;52.438;13.502;2023-04-25T07:03:47;10.60;1.00
3288;DHT22;3260;52.438;13.502;2023-04-25T07:06:16;10.50;1.00
3288;DHT22;3260;52.438;13.502;2023-04-25T07:08:44;10.40;1.00
3288;DHT22;3260;52.438;13.502;2023-04-25T07:11:14;10.40;1.00
3288;DHT22;3260;52.438;13.502;2023-04-25T07:13:42;10.50;1.00
3288;DHT22;3260;52.438;13.502;2023-04-25T07:16:10;10.60;1.00
3288;DHT22;3260;52.438;13.502;2023-04-25T07:18:39;10.70;1.00
3288;DHT22;3260;52.438;13.502;2023-04-25T07:21:07;10.70;1.00
3288;DHT22;3260;52.438;13.502;2023-04-25T07:23:35;10.70;1.00
3288;DHT22;3260;52.438;13.502;2023-04-25T07:26:04;10.80;1.00
3288;DHT22;3260;52.438;13.502;2023-04-25T07:28:33;10.80;1.00
3288;DHT22;3260;52.438;13.502;2023-04-25T07:31:02;10.70;1.00
3288;DHT22;3260;52.438;13.502;2023-04-25T07:33:30;10.70;1.00
3288;DHT22;3260;52.438;13.502;2023-04-25T07:35:58;10.60;1.00
3288;DHT22;3260;52.438;13.502;2023-04-25T07:38:26;10.50;1.00
3288;DHT22;3260;52.438;13.502;2023-04-25T07:40:55;10.40;1.00
3288;DHT22;3260;52.438;13.502;2023-04-25T07:43:23;10.30;1.00
3288;DHT22;3260;52.438;13.502;2023-04-25T07:45:52;10.20;1.00
3288;DHT22;3260;52.438;13.502;2023-04-25T07:48:21;10.00;1.00
3288;DHT22;3260;52.438;13.502;2023-04-25T07:50:49;10.00;1.00
3288;DHT22;3260;52.438;13.502;2023-04-25T07:53:18;9.90;1.00
3288;DHT22;3260;52.438;13.502;2023-04-25T07:55:46;9.90;1.00
3288;DHT22;3260;52.438;13.502;2023-04-25T07:58:14;9.80;1.00
3288;DHT22;3260;52.438;13.502;2023-04-25T08:00:47;9.80;1.00
3288;DHT22;3260;52.438;13.502;2023-04-25T08:03:18;9.70;1.00
3288;DHT22;3260;52.438;13.502;2023-04-25T08:05:46;9.80;1.00
3288;DHT22;3260;52.438;13.502;2023-04-25T08:08:15;9.90;1.00
3288;DHT22;3260;52.438;13.502;2023-04-25T08:10:43;10.00;1.00
3288;DHT22;3260;52.438;13.502;2023-04-25T08:13:11;10.10;1.00
3288;DHT22;3260;52.438;13.502;2023-04-25T08:15:40;10.20;1.00
3288;DHT22;3260;52.438;13.502;2023-04-25T08:18:08;10.00;1.00
3288;DHT22;3260;52.438;13.502;2023-04-25T08:20:38;9.90;1.00
3288;DHT22;3260;52.438;13.502;2023-04-25T08:23:07;9.90;1.00
3288;DHT22;3260;52.438;13.502;2023-04-25T08:25:35;10.00;1.00
3288;DHT22;3260;52.438;13.502;2023-04-25T08:28:03;10.20;1.00
3288;DHT22;3260;52.438;13.502;2023-04-25T08:30:33;10.30;1.00
3288;DHT22;3260;52.438;13.502;2023-04-25T08:33:01;10.50;1.00
3288;DHT22;3260;52.438;13.502;2023-04-25T08:35:30;10.70;1.00
3288;DHT22;3260;52.438;13.502;2023-04-25T08:38:01;10.90;1.00
3288;DHT22;3260;52.438;13.502;2023-04-25T08:40:29;11.10;1.00
3288;DHT22;3260;52.438;13.502;2023-04-25T08:43:06;11.30;1.00
3288;DHT22;3260;52.438;13.502;2023-04-25T08:45:39;11.50;1.00
3288;DHT22;3260;52.438;13.502;2023-04-25T08:48:11;11.80;1.00
3288;DHT22;3260;52.438;13.502;2023-04-25T08:50:45;12.00;1.00
3288;DHT22;3260;52.438;13.502;2023-04-25T08:53:22;12.20;1.00
3288;DHT22;3260;52.438;13.502;2023-04-25T08:55:55;12.20;1.00
3288;DHT22;3260;52.438;13.502;2023-04-25T08:58:25;12.30;1.00
3288;DHT22;3260;52.438;13.502;2023-04-25T09:00:54;12.30;1.00
3288;DHT22;3260;52.438;13.502;2023-04-25T09:03:22;12.30;1.00
3288;DHT22;3260;52.438;13.502;2023-04-25T09:05:51;12.10;1.00
3288;DHT22;3260;52.438;13.502;2023-04-25T09:08:21;12.20;1.00
3288;DHT22;3260;52.438;13.502;2023-04-25T09:10:50;12.10;1.00
3288;DHT22;3260;52.438;13.502;2023-04-25T09:13:25;12.20;1.00
3288;DHT22;3260;52.438;13.502;2023-04-25T09:15:56;12.30;1.00
3288;DHT22;3260;52.438;13.502;2023-04-25T09:18:25;12.30;1.00
3288;DHT22;3260;52.438;13.502;2023-04-25T09:20:58;12.30;1.00
3288;DHT22;3260;52.438;13.502;2023-04-25T09:23:44;12.10;1.00
3288;DHT22;3260;52.438;13.502;2023-04-25T09:26:14;12.00;1.00
3288;DHT22;3260;52.438;13.502;2023-04-25T09:28:43;11.70;1.00
3288;DHT22;3260;52.438;13.502;2023-04-25T09:31:12;11.70;1.00
3288;DHT22;3260;52.438;13.502;2023-04-25T09:33:50;11.90;1.00
3288;DHT22;3260;52.438;13.502;2023-04-25T09:36:27;12.20;1.00
3288;DHT22;3260;52.438;13.502;2023-04-25T09:39:00;12.30;1.00
3288;DHT22;3260;52.438;13.502;2023-04-25T09:41:30;12.50;1.00
3288;DHT22;3260;52.438;13.502;2023-04-25T09:44:01;12.70;1.00
3288;DHT22;3260;52.438;13.502;2023-04-25T09:46:33;12.90;1.00
3288;DHT22;3260;52.438;13.502;2023-04-25T09:49:06;13.00;1.00
3288;DHT22;3260;52.438;13.502;2023-04-25T09:51:35;13.30;1.00
3288;DHT22;3260;52.438;13.502;2023-04-25T09:54:05;13.50;1.00
3288;DHT22;3260;52.438;13.502;2023-04-25T09:56:36;13.40;1.00
3288;DHT22;3260;52.438;13.502;2023-04-25T09:59:05;13.20;1.00
3288;DHT22;3260;52.438;13.502;2023-04-25T10:01:36;13.10;1.00
3288;DHT22;3260;52.438;13.502;2023-04-25T10:04:10;12.90;1.00
3288;DHT22;3260;52.438;13.502;2023-04-25T10:06:41;12.90;1.00
3288;DHT22;3260;52.438;13.502;2023-04-25T10:09:12;13.00;1.00
3288;DHT22;3260;52.438;13.502;2023-04-25T10:11:42;13.10;1.00
3288;DHT22;3260;52.438;13.502;2023-04-25T10:14:13;13.20;1.00
3288;DHT22;3260;52.438;13.502;2023-04-25T10:16:42;13.30;1.00
3288;DHT22;3260;52.438;13.502;2023-04-25T10:19:11;13.40;1.00
3288;DHT22;3260;52.438;13.502;2023-04-25T10:21:52;13.50;1.00
3288;DHT22;3260;52.438;13.502;2023-04-25T10:24:25;13.50;1.00
3288;DHT22;3260;52.438;13.502;2023-04-25T10:26:56;13.40;1.00
3288;DHT22;3260;52.438;13.502;2023-04-25T10:29:26;13.40;1.00
3288;DHT22;3260;52.438;13.502;2023-04-25T10:31:55;13.60;1.00
3288;DHT22;3260;52.438;13.502;2023-04-25T10:34:37;13.60;1.00
3288;DHT22;3260;52.438;13.502;2023-04-25T10:37:09;13.50;1.00
3288;DHT22;3260;52.438;13.502;2023-04-25T10:39:40;13.60;1.00
3288;DHT22;3260;52.438;13.502;2023-04-25T10:42:09;13.40;1.00
3288;DHT22;3260;52.438;13.502;2023-04-25T10:44:38;13.30;1.00
3288;DHT22;3260;52.438;13.502;2023-04-25T10:47:07;13.40;1.00
3288;DHT22;3260;52.438;13.502;2023-04-25T10:49:41;13.60;1.00
3288;DHT22;3260;52.438;13.502;2023-04-25T10:52:18;14.10;1.00
3288;DHT22;3260;52.438;13.502;2023-04-25T10:54:54;14.50;1.00
3288;DHT22;3260;52.438;13.502;2023-04-25T10:57:28;14.20;1.00
3288;DHT22;3260;52.438;13.502;2023-04-25T11:00:05;13.90;1.00
3288;DHT22;3260;52.438;13.502;2023-04-25T11:02:40;13.50;1.00
3288;DHT22;3260;52.438;13.502;2023-04-25T11:05:10;13.20;1.00
3288;DHT22;3260;52.438;13.502;2023-04-25T11:07:44;13.00;1.00
3288;DHT22;3260;52.438;13.502;2023-04-25T11:10:32;12.90;1.00
3288;DHT22;3260;52.438;13.502;2023-04-25T11:13:01;12.70;1.00
3288;DHT22;3260;52.438;13.502;2023-04-25T11:15:31;12.90;1.00
3288;DHT22;3260;52.438;13.502;2023-04-25T11:21:32;13.50;1.00
3288;DHT22;3260;52.438;13.502;2023-04-25T11:24:01;13.70;1.00
3288;DHT22;3260;52.438;13.502;2023-04-25T11:26:31;13.70;1.00
3288;DHT22;3260;52.438;13.502;2023-04-25T11:29:00;13.60;1.00
3288;DHT22;3260;52.438;13.502;2023-04-25T11:31:29;13.30;1.00
3288;DHT22;3260;52.438;13.502;2023-04-25T11:33:57;13.10;1.00
3288;DHT22;3260;52.438;13.502;2023-04-25T11:36:26;12.90;1.00
3288;DHT22;3260;52.438;13.502;2023-04-25T11:38:55;12.80;1.00
3288;DHT22;3260;52.438;13.502;2023-04-25T11:41:23;12.80;1.00
3288;DHT22;3260;52.438;13.502;2023-04-25T11:43:56;12.90;1.00
3288;DHT22;3260;52.438;13.502;2023-04-25T11:46:24;13.00;1.00
3288;DHT22;3260;52.438;13.502;2023-04-25T11:48:55;12.70;1.00
3288;DHT22;3260;52.438;13.502;2023-04-25T11:51:25;12.10;1.00
3288;DHT22;3260;52.438;13.502;2023-04-25T11:53:53;11.80;1.00
3288;DHT22;3260;52.438;13.502;2023-04-25T11:56:22;11.60;1.00
3288;DHT22;3260;52.438;13.502;2023-04-25T11:59:00;11.60;1.00
3288;DHT22;3260;52.438;13.502;2023-04-25T12:01:30;11.60;1.00
3288;DHT22;3260;52.438;13.502;2023-04-25T12:04:11;11.60;1.00
3288;DHT22;3260;52.438;13.502;2023-04-25T12:06:44;11.80;1.00
3288;DHT22;3260;52.438;13.502;2023-04-25T12:09:16;12.00;1.00
3288;DHT22;3260;52.438;13.502;2023-04-25T12:11:47;12.20;1.00
3288;DHT22;3260;52.438;13.502;2023-04-25T12:14:25;12.50;1.00
3288;DHT22;3260;52.438;13.502;2023-04-25T12:16:56;12.70;1.00
3288;DHT22;3260;52.438;13.502;2023-04-25T12:19:26;12.50;1.00
3288;DHT22;3260;52.438;13.502;2023-04-25T12:22:00;12.50;1.00
3288;DHT22;3260;52.438;13.502;2023-04-25T12:24:33;12.50;1.00
3288;DHT22;3260;52.438;13.502;2023-04-25T12:27:05;12.40;1.00
3288;DHT22;3260;52.438;13.502;2023-04-25T12:29:36;12.30;1.00
3288;DHT22;3260;52.438;13.502;2023-04-25T12:32:15;12.30;1.00
3288;DHT22;3260;52.438;13.502;2023-04-25T12:34:44;12.40;1.00
3288;DHT22;3260;52.438;13.502;2023-04-25T12:37:13;12.50;1.00
3288;DHT22;3260;52.438;13.502;2023-04-25T12:39:42;12.60;1.00
3288;DHT22;3260;52.438;13.502;2023-04-25T12:42:10;12.70;1.00
3288;DHT22;3260;52.438;13.502;2023-04-25T12:44:41;12.80;1.00
3288;DHT22;3260;52.438;13.502;2023-04-25T12:47:09;12.90;1.00
3288;DHT22;3260;52.438;13.502;2023-04-25T12:49:37;13.00;1.00
3288;DHT22;3260;52.438;13.502;2023-04-25T12:52:06;13.20;1.00
3288;DHT22;3260;52.438;13.502;2023-04-25T12:54:34;13.50;1.00
3288;DHT22;3260;52.438;13.502;2023-04-25T12:57:02;13.70;1.00
3288;DHT22;3260;52.438;13.502;2023-04-25T12:59:31;14.10;1.00
3288;DHT22;3260;52.438;13.502;2023-04-25T13:02:01;14.50;1.00
3288;DHT22;3260;52.438;13.502;2023-04-25T13:04:30;14.50;1.00
3288;DHT22;3260;52.438;13.502;2023-04-25T13:06:58;14.10;1.00
3288;DHT22;3260;52.438;13.502;2023-04-25T13:09:26;13.80;1.00
3288;DHT22;3260;52.438;13.502;2023-04-25T13:11:54;13.50;1.00
3288;DHT22;3260;52.438;13.502;2023-04-25T13:14:25;13.20;1.00
3288;DHT22;3260;52.438;13.502;2023-04-25T13:16:53;13.10;1.00
3288;DHT22;3260;52.438;13.502;2023-04-25T13:19:23;13.20;1.00
3288;DHT22;3260;52.438;13.502;2023-04-25T13:21:52;13.30;1.00
3288;DHT22;3260;52.438;13.502;2023-04-25T13:24:20;13.40;1.00
3288;DHT22;3260;52.438;13.502;2023-04-25T13:26:48;13.20;1.00
3288;DHT22;3260;52.438;13.502;2023-04-25T13:29:17;13.40;1.00
3288;DHT22;3260;52.438;13.502;2023-04-25T13:31:45;13.70;1.00
3288;DHT22;3260;52.438;13.502;2023-04-25T13:34:13;15.40;1.00
3288;DHT22;3260;52.438;13.502;2023-04-25T13:36:43;18.30;1.00
3288;DHT22;3260;52.438;13.502;2023-04-25T13:39:12;19.80;1.00
3288;DHT22;3260;52.438;13.502;2023-04-25T13:41:41;19.20;1.00
3288;DHT22;3260;52.438;13.502;2023-04-25T13:44:09;18.20;1.00
3288;DHT22;3260;52.438;13.502;2023-04-25T13:46:38;17.30;1.00
3288;DHT22;3260;52.438;13.502;2023-04-25T13:49:13;16.60;1.00
3288;DHT22;3260;52.438;13.502;2023-04-25T13:51:43;15.90;1.00
3288;DHT22;3260;52.438;13.502;2023-04-25T13:54:11;15.20;1.00
3288;DHT22;3260;52.438;13.502;2023-04-25T13:56:41;14.60;1.00
3288;DHT22;3260;52.438;13.502;2023-04-25T13:59:09;14.40;1.00
3288;DHT22;3260;52.438;13.502;2023-04-25T14:01:38;14.50;1.00
3288;DHT22;3260;52.438;13.502;2023-04-25T14:04:06;15.10;1.00
3288;DHT22;3260;52.438;13.502;2023-04-25T14:06:35;16.20;1.00
3288;DHT22;3260;52.438;13.502;2023-04-25T14:09:05;17.90;1.00
3288;DHT22;3260;52.438;13.502;2023-04-25T14:11:33;18.30;1.00
3288;DHT22;3260;52.438;13.502;2023-04-25T14:14:02;18.00;1.00
3288;DHT22;3260;52.438;13.502;2023-04-25T14:16:31;17.10;1.00
3288;DHT22;3260;52.438;13.502;2023-04-25T14:18:59;16.00;1.00
3288;DHT22;3260;52.438;13.502;2023-04-25T14:21:28;15.00;1.00
3288;DHT22;3260;52.438;13.502;2023-04-25T14:23:59;14.20;1.00
3288;DHT22;3260;52.438;13.502;2023-04-25T14:26:28;13.50;1.00
3288;DHT22;3260;52.438;13.502;2023-04-25T14:28:56;12.90;1.00
3288;DHT22;3260;52.438;13.502;2023-04-25T14:31:25;12.40;1.00
3288;DHT22;3260;52.438;13.502;2023-04-25T14:33:53;12.00;1.00
3288;DHT22;3260;52.438;13.502;2023-04-25T14:36:25;11.50;1.00
3288;DHT22;3260;52.438;13.502;2023-04-25T14:38:54;11.30;1.00
3288;DHT22;3260;52.438;13.502;2023-04-25T14:41:24;11.20;1.00
3288;DHT22;3260;52.438;13.502;2023-04-25T14:43:54;11.10;1.00
3288;DHT22;3260;52.438;13.502;2023-04-25T14:46:23;10.90;1.00
3288;DHT22;3260;52.438;13.502;2023-04-25T14:48:52;10.90;1.00
3288;DHT22;3260;52.438;13.502;2023-04-25T14:51:22;10.90;1.00
3288;DHT22;3260;52.438;13.502;2023-04-25T14:53:51;11.00;1.00
3288;DHT22;3260;52.438;13.502;2023-04-25T14:56:19;11.20;1.00
3288;DHT22;3260;52.438;13.502;2023-04-25T14:58:48;11.50;1.00
3288;DHT22;3260;52.438;13.502;2023-04-25T15:01:18;12.10;1.00
3288;DHT22;3260;52.438;13.502;2023-04-25T15:03:48;12.70;1.00
3288;DHT22;3260;52.438;13.502;2023-04-25T15:06:18;13.30;1.00
3288;DHT22;3260;52.438;13.502;2023-04-25T15:08:47;14.20;1.00
3288;DHT22;3260;52.438;13.502;2023-04-25T15:11:15;14.40;1.00
3288;DHT22;3260;52.438;13.502;2023-04-25T15:13:43;14.40;1.00
3288;DHT22;3260;52.438;13.502;2023-04-25T15:16:11;13.90;1.00
3288;DHT22;3260;52.438;13.502;2023-04-25T15:18:41;13.20;1.00
3288;DHT22;3260;52.438;13.502;2023-04-25T15:21:09;12.80;1.00
3288;DHT22;3260;52.438;13.502;2023-04-25T15:23:38;12.60;1.00
3288;DHT22;3260;52.438;13.502;2023-04-25T15:26:06;12.30;1.00
3288;DHT22;3260;52.438;13.502;2023-04-25T15:28:35;12.30;1.00
3288;DHT22;3260;52.438;13.502;2023-04-25T15:31:03;12.20;1.00
3288;DHT22;3260;52.438;13.502;2023-04-25T15:33:32;12.10;1.00
3288;DHT22;3260;52.438;13.502;2023-04-25T15:36:01;12.20;1.00
3288;DHT22;3260;52.438;13.502;2023-04-25T15:38:30;12.20;1.00
3288;DHT22;3260;52.438;13.502;2023-04-25T15:40:58;12.40;1.00
3288;DHT22;3260;52.438;13.502;2023-04-25T15:43:27;12.80;1.00
3288;DHT22;3260;52.438;13.502;2023-04-25T15:45:55;13.90;1.00
3288;DHT22;3260;52.438;13.502;2023-04-25T15:48:24;15.00;1.00
3288;DHT22;3260;52.438;13.502;2023-04-25T15:50:52;15.70;1.00
3288;DHT22;3260;52.438;13.502;2023-04-25T15:53:22;15.50;1.00
3288;DHT22;3260;52.438;13.502;2023-04-25T15:55:51;14.60;1.00
3288;DHT22;3260;52.438;13.502;2023-04-25T15:58:19;14.00;1.00
3288;DHT22;3260;52.438;13.502;2023-04-25T16:00:48;13.70;1.00
3288;DHT22;3260;52.438;13.502;2023-04-25T16:03:17;13.20;1.00
3288;DHT22;3260;52.438;13.502;2023-04-25T16:05:45;12.90;1.00
3288;DHT22;3260;52.438;13.502;2023-04-25T16:08:13;12.70;1.00
3288;DHT22;3260;52.438;13.502;2023-04-25T16:10:43;12.60;1.00
3288;DHT22;3260;52.438;13.502;2023-04-25T16:13:12;12.60;1.00
3288;DHT22;3260;52.438;13.502;2023-04-25T16:15:40;12.40;1.00
3288;DHT22;3260;52.438;13.502;2023-04-25T16:18:08;12.10;1.00
3288;DHT22;3260;52.438;13.502;2023-04-25T16:20:36;11.80;1.00
3288;DHT22;3260;52.438;13.502;2023-04-25T16:23:04;11.50;1.00
3288;DHT22;3260;52.438;13.502;2023-04-25T16:25:33;11.30;1.00
3288;DHT22;3260;52.438;13.502;2023-04-25T16:28:03;11.20;1.00
3288;DHT22;3260;52.438;13.502;2023-04-25T16:30:31;11.10;1.00
3288;DHT22;3260;52.438;13.502;2023-04-25T16:32:59;11.00;1.00
3288;DHT22;3260;52.438;13.502;2023-04-25T16:35:28;10.90;1.00
3288;DHT22;3260;52.438;13.502;2023-04-25T16:37:58;10.70;1.00
3288;DHT22;3260;52.438;13.502;2023-04-25T16:40:26;10.70;1.00
3288;DHT22;3260;52.438;13.502;2023-04-25T16:42:54;10.60;1.00
3288;DHT22;3260;52.438;13.502;2023-04-25T16:45:25;10.50;1.00
3288;DHT22;3260;52.438;13.502;2023-04-25T16:47:53;10.40;1.00
3288;DHT22;3260;52.438;13.502;2023-04-25T16:50:22;10.30;1.00
3288;DHT22;3260;52.438;13.502;2023-04-25T16:52:51;10.40;1.00
3288;DHT22;3260;52.438;13.502;2023-04-25T16:55:20;10.30;1.00
3288;DHT22;3260;52.438;13.502;2023-04-25T16:57:48;10.20;1.00
3288;DHT22;3260;52.438;13.502;2023-04-25T17:00:17;10.20;1.00
3288;DHT22;3260;52.438;13.502;2023-04-25T17:02:47;10.20;1.00
3288;DHT22;3260;52.438;13.502;2023-04-25T17:05:17;10.10;1.00
3288;DHT22;3260;52.438;13.502;2023-04-25T17:07:45;10.00;1.00
3288;DHT22;3260;52.438;13.502;2023-04-25T17:10:13;10.10;1.00
3288;DHT22;3260;52.438;13.502;2023-04-25T17:12:41;10.10;1.00
3288;DHT22;3260;52.438;13.502;2023-04-25T17:15:10;10.30;1.00
3288;DHT22;3260;52.438;13.502;2023-04-25T17:17:38;10.30;1.00
3288;DHT22;3260;52.438;13.502;2023-04-25T17:20:09;10.50;1.00
3288;DHT22;3260;52.438;13.502;2023-04-25T17:22:39;10.80;1.00
3288;DHT22;3260;52.438;13.502;2023-04-25T17:25:08;10.80;1.00
3288;DHT22;3260;52.438;13.502;2023-04-25T17:27:37;10.90;1.00
3288;DHT22;3260;52.438;13.502;2023-04-25T17:30:06;11.00;1.00
3288;DHT22;3260;52.438;13.502;2023-04-25T17:32:35;11.20;1.00
3288;DHT22;3260;52.438;13.502;2023-04-25T17:35:04;11.70;1.00
3288;DHT22;3260;52.438;13.502;2023-04-25T17:37:34;12.10;1.00
3288;DHT22;3260;52.438;13.502;2023-04-25T17:40:03;12.50;1.00
3288;DHT22;3260;52.438;13.502;2023-04-25T17:42:32;12.50;1.00
3288;DHT22;3260;52.438;13.502;2023-04-25T17:45:00;12.40;1.00
3288;DHT22;3260;52.438;13.502;2023-04-25T17:47:29;12.00;1.00
3288;DHT22;3260;52.438;13.502;2023-04-25T17:49:57;11.50;1.00
3288;DHT22;3260;52.438;13.502;2023-04-25T17:52:26;11.00;1.00
3288;DHT22;3260;52.438;13.502;2023-04-25T17:54:56;10.60;1.00
3288;DHT22;3260;52.438;13.502;2023-04-25T17:57:24;10.30;1.00
3288;DHT22;3260;52.438;13.502;2023-04-25T17:59:52;10.10;1.00
3288;DHT22;3260;52.438;13.502;2023-04-25T18:02:23;10.00;1.00
3288;DHT22;3260;52.438;13.502;2023-04-25T18:04:53;9.80;1.00
3288;DHT22;3260;52.438;13.502;2023-04-25T18:07:22;9.70;1.00
3288;DHT22;3260;52.438;13.502;2023-04-25T18:09:51;9.60;1.00
3288;DHT22;3260;52.438;13.502;2023-04-25T18:12:20;9.40;1.00
3288;DHT22;3260;52.438;13.502;2023-04-25T18:14:49;9.30;1.00
3288;DHT22;3260;52.438;13.502;2023-04-25T18:17:17;9.20;1.00
3288;DHT22;3260;52.438;13.502;2023-04-25T18:19:46;9.10;1.00
3288;DHT22;3260;52.438;13.502;2023-04-25T18:22:16;9.00;1.00
3288;DHT22;3260;52.438;13.502;2023-04-25T18:24:45;9.00;1.00
3288;DHT22;3260;52.438;13.502;2023-04-25T18:27:13;9.00;1.00
3288;DHT22;3260;52.438;13.502;2023-04-25T18:29:43;9.00;1.00
3288;DHT22;3260;52.438;13.502;2023-04-25T18:32:11;9.00;1.00
3288;DHT22;3260;52.438;13.502;2023-04-25T18:34:40;9.00;1.00
3288;DHT22;3260;52.438;13.502;2023-04-25T18:37:11;9.00;1.00
3288;DHT22;3260;52.438;13.502;2023-04-25T18:39:40;9.00;1.00
3288;DHT22;3260;52.438;13.502;2023-04-25T18:42:08;8.90;1.00
3288;DHT22;3260;52.438;13.502;2023-04-25T18:44:37;8.80;1.00
3288;DHT22;3260;52.438;13.502;2023-04-25T18:47:08;8.70;1.00
3288;DHT22;3260;52.438;13.502;2023-04-25T18:49:38;8.60;1.00
3288;DHT22;3260;52.438;13.502;2023-04-25T18:52:07;8.60;1.00
3288;DHT22;3260;52.438;13.502;2023-04-25T18:54:38;8.60;1.00
3288;DHT22;3260;52.438;13.502;2023-04-25T18:57:06;8.70;1.00
3288;DHT22;3260;52.438;13.502;2023-04-25T18:59:35;8.70;1.00
3288;DHT22;3260;52.438;13.502;2023-04-25T19:02:03;8.80;1.00
3288;DHT22;3260;52.438;13.502;2023-04-25T19:04:33;8.80;1.00
3288;DHT22;3260;52.438;13.502;2023-04-25T19:07:01;8.90;1.00
3288;DHT22;3260;52.438;13.502;2023-04-25T19:09:30;8.90;1.00
3288;DHT22;3260;52.438;13.502;2023-04-25T19:11:59;9.00;1.00
3288;DHT22;3260;52.438;13.502;2023-04-25T19:14:30;9.00;1.00
3288;DHT22;3260;52.438;13.502;2023-04-25T19:16:59;9.00;1.00
3288;DHT22;3260;52.438;13.502;2023-04-25T19:19:27;9.00;1.00
3288;DHT22;3260;52.438;13.502;2023-04-25T19:21:58;8.80;1.00
3288;DHT22;3260;52.438;13.502;2023-04-25T19:24:26;8.70;1.00
3288;DHT22;3260;52.438;13.502;2023-04-25T19:26:54;8.50;1.00
3288;DHT22;3260;52.438;13.502;2023-04-25T19:29:22;8.40;1.00
3288;DHT22;3260;52.438;13.502;2023-04-25T19:31:51;8.30;1.00
3288;DHT22;3260;52.438;13.502;2023-04-25T19:34:20;8.10;1.00
3288;DHT22;3260;52.438;13.502;2023-04-25T19:36:49;8.00;1.00
3288;DHT22;3260;52.438;13.502;2023-04-25T19:39:21;7.90;1.00
3288;DHT22;3260;52.438;13.502;2023-04-25T19:41:49;7.80;1.00
3288;DHT22;3260;52.438;13.502;2023-04-25T19:44:17;7.80;1.00
3288;DHT22;3260;52.438;13.502;2023-04-25T19:46:46;7.70;1.00
3288;DHT22;3260;52.438;13.502;2023-04-25T19:49:15;7.70;1.00
3288;DHT22;3260;52.438;13.502;2023-04-25T19:51:43;7.60;1.00
3288;DHT22;3260;52.438;13.502;2023-04-25T19:54:13;7.60;1.00
3288;DHT22;3260;52.438;13.502;2023-04-25T19:56:43;7.60;1.00
3288;DHT22;3260;52.438;13.502;2023-04-25T19:59:11;7.60;1.00
3288;DHT22;3260;52.438;13.502;2023-04-25T20:01:39;7.60;1.00
3288;DHT22;3260;52.438;13.502;2023-04-25T20:04:08;7.60;1.00
3288;DHT22;3260;52.438;13.502;2023-04-25T20:06:36;7.50;1.00
3288;DHT22;3260;52.438;13.502;2023-04-25T20:09:05;7.50;1.00
3288;DHT22;3260;52.438;13.502;2023-04-25T20:11:35;7.50;1.00
3288;DHT22;3260;52.438;13.502;2023-04-25T20:14:04;7.40;1.00
3288;DHT22;3260;52.438;13.502;2023-04-25T20:16:33;7.40;1.00
3288;DHT22;3260;52.438;13.502;2023-04-25T20:19:02;7.40;1.00
3288;DHT22;3260;52.438;13.502;2023-04-25T20:21:31;7.40;1.00
3288;DHT22;3260;52.438;13.502;2023-04-25T20:24:00;7.40;1.00
3288;DHT22;3260;52.438;13.502;2023-04-25T20:26:28;7.30;1.00